AirNav   Pilot Hours Calculator
 
 508 users online  

4A5 Searcy County Airport
Marshall, Arkansas, USA

GOING TO MARSHALL?


FAA INFORMATION EFFECTIVE 16 JUNE 2022

Location

FAA Identifier: 4A5
Lat/Long: 35-53-55.3000N 092-39-22.8000W
35-53.921667N 092-39.380000W
35.8986944,-92.6563333
(estimated)
Elevation: 963.6 ft. / 293.7 m (surveyed)
Variation: 00E (2020)
From city: 1 mile SW of MARSHALL, AR
Time zone: UTC -5 (UTC -6 during Standard Time)
Zip code: 72650

Airport Operations

Airport use: Open to the public
Activation date: 05/1994
Control tower: no
ARTCC: MEMPHIS CENTER
FSS: JONESBORO FLIGHT SERVICE STATION
NOTAMs facility: JBR (NOTAM-D service available)
Attendance: UNATNDD
Wind indicator: lighted
Segmented circle: yes
Lights: ACTVT REIL RWY 05 & 23; MIRL RWY 05/23 - CTAF.
Beacon: white-green (lighted land airport)
Operates sunset to sunrise.

Airport Communications

CTAF: 122.9
  • APCH/DEP SVC PRVDD BY MEMPHIS ARTCC (ZME) ON FREQ 126.850/281.550 (BRINKLEY & HARRISON RCAG).

Airport Services

Fuel available: 100LL
100LL:SELF SVC AVBL H24 WITH CREDIT CARD.
Parking: hangars and tiedowns

Runway Information

Runway 5/23

Dimensions: 4003 x 75 ft. / 1220 x 23 m
Surface: asphalt, in good condition
Weight bearing capacity: 
Single wheel: 12.5
Runway edge lights: medium intensity
RUNWAY 5  RUNWAY 23
Latitude: 35-53.714998N35-54.128610N
Longitude: 092-39.695905W092-39.064618W
Elevation: 923.7 ft.963.5 ft.
Traffic pattern: leftright
Runway heading: 051231
Markings: nonprecision, in good conditionnonprecision, in good condition
Visual slope indicator: 2-light PAPI on left (3.25 degrees glide path)
PAPI UNUSBL 9 DEGS EACH SIDE OF CNTRLN.
2-light PAPI on left (3.25 degrees glide path)
PAPI UNUSBL BYD 7 DEGS RIGHT OF CNTRLN.
Runway end identifier lights: yes
OTS INDEFLY.
yes
OTS INDEFLY.
Touchdown point: yes, no lightsyes, no lights

Airport Ownership and Management from official FAA records

Ownership: Publicly-owned
Owner: SEARCY COUNTY
PO BOX 1370
MARSHALL, AR 72650
Phone 870-448-3554
Manager: JOE WILSON, CHAIRMAN
P.O. BOX 1033
MARSHALL, AR 72650
Phone 512-618-5331

Airport Operational Statistics

Aircraft based on the field: 10
Single engine airplanes: 10
    
Aircraft operations: avg 42/week *
55% local general aviation
45% transient general aviation
* for 12-month period ending 30 November 2021

Additional Remarks

LGTD TWR 2059 FT MSL/299 FT AGL ON MT TOP 1 MI E OF ARPT.
DEER ON & INVOF ARPT.
FOR CD CTC MEMPHIS ARTCC AT 901-368-8453/8449.

Instrument Procedures

NOTE: All procedures below are presented as PDF files. If you need a reader for these files, you should download the free Adobe Reader.

NOT FOR NAVIGATION. Please procure official charts for flight.
FAA instrument procedures published for use from 16 June 2022 at 0901Z to 14 July 2022 at 0900z.

 
IAPs - Instrument Approach Procedures
RNAV (GPS) RWY 05   download (238KB)
RNAV (GPS) RWY 23   download (218KB)
NOTE: Special Take-Off Minimums/Departure Procedures apply   download (186KB)

Other nearby airports with instrument procedures:

2A2 - Holley Mountain Airpark (19 nm SE)
KCCA - Clinton Municipal Airport (21 nm SE)
KFLP - Marion County Regional Airport (24 nm N)
7M2 - Mountain View Airport-Wilcox Memorial Field (28 nm E)
KBPK - Baxter County Airport (30 nm N)
 
Loc | Ops | Rwys | IFR | FBO | Links
Com | Nav | Svcs | Stats | Notes

Branson Jet Center
AirBoss

 
Area around 4A5 (Searcy County Airport)
 
Road maps at: MapQuest Bing Google
 
Aerial photo
WARNING: Photo may not be current or correct
Aerial photo of 4A5 (Searcy County Airport)
Taken in the Summer of 2012
looking south.

Do you have a better or more recent aerial photo of Searcy County Airport that you would like to share? If so, please send us your photo.

 
Sectional chart

 
Airport distance calculator
Flying to Searcy County Airport? Find the distance to fly.

From to 4A5

Sunrise and sunset
Times for 27-Jun-2022
 Local
(UTC-5)
 Zulu
(UTC)
Morning civil twilight05:2710:27
Sunrise05:5710:57
Sunset20:3001:30
Evening civil twilight21:0002:00

Current date and time
Zulu (UTC)  27-Jun-2022 07:14:21
Local (UTC-5)  27-Jun-2022 02:14:21
 
METAR
KCCA 
21nm SE 
270655Z AUTO 00000KT 10SM OVC060 23/14 A3021 RMK AO2 P0012
KFLP 
25nm N 
270656Z AUTO 35003KT 10SM CLR 22/14 A3025 RMK AO2 SLP236 T02170139
KBPK 
30nm N 
270553Z AUTO 00000KT 10SM CLR 21/13 A3023 RMK AO2 SLP227 T02060128 10278 20206 403110206 51008
KHRO 
33nm NW 
270653Z AUTO 31003KT 10SM CLR 19/13 A3027 RMK AO2 SLP236 T01940133
TAF
KBPK 
30nm N 
270527Z 2706/2806 36006KT P6SM FEW120 BKN250 FM271400 07008G16KT P6SM SCT250 FM280100 02005KT P6SM BKN250
KHRO 
33nm NW 
270527Z 2706/2806 36008KT P6SM FEW120 BKN250 FM271400 07008G16KT P6SM SCT250 FM280100 02005KT P6SM BKN250
NOTAMs
Click for the latest NOTAMs
NOTAMs are issued by the DoD/FAA and will open in a separate window not controlled by AirNav.

 

 
 

FBO, Fuel Providers, and Aircraft Ground Support

  
 Business Name 
 
 Contact 
 
 Services / Description 
 
Fuel Prices
 
Comments
  
Searcy County Airport 870-404-1444
no information available

If you are affiliated with Searcy County Airport and would like to show here your services, contact info, web link, logo, and more, click here
100LL
AS $6.00 
 Updated 09-Jun-2022
 
   1 read write
AS=Assisted/Self Service
Update Fuel Prices
 

Would you like to see your business listed on this page?

 If your business provides an interesting product or service to pilots, flight crews, aircraft, or users of the Searcy County Airport, you should consider listing it here.  To start the listing process, click on the button below
 
Add a business
 

Other Pages about Searcy County Airport

Update a link
 
Copyright © AirNav, LLC. All rights reserved. Privacy Policy  Contact